Time;durP1;ratioP1;P1;durP2;ratioP2;P2;SDS_P1;SDS_P2;PMS_P1;PMS_P2;Temp;Humidity;BMP_temperature;BMP_pressure;BME280_temperature;BME280_humidity;BME280_pressure;Samples;Min_cycle;Max_cycle;Signal;HPM_P1;HPM_P2
2022/05/21 00:01:50;;;;;;;4.70;3.95;;;19.70;99.90;;;;;;5015314;28;20544;-88
2022/05/21 00:04:16;;;;;;;5.05;3.85;;;19.80;99.90;;;;;;5031848;28;20171;-88
2022/05/21 00:06:42;;;;;;;5.95;3.60;;;19.80;99.90;;;;;;5015697;28;20268;-88
2022/05/21 00:09:09;;;;;;;4.47;3.63;;;19.80;99.90;;;;;;5015018;28;20209;-88
2022/05/21 00:11:36;;;;;;;4.30;3.65;;;19.70;99.90;;;;;;5015480;28;20182;-88
2022/05/21 00:14:02;;;;;;;4.07;3.50;;;19.70;99.90;;;;;;5015116;28;20207;-88
2022/05/21 00:16:29;;;;;;;5.22;3.67;;;19.60;99.90;;;;;;5015518;28;20667;-88
2022/05/21 00:18:56;;;;;;;3.72;3.38;;;19.50;99.90;;;;;;5014437;28;20197;-88
2022/05/21 00:21:23;;;;;;;4.55;3.40;;;19.50;99.90;;;;;;5015515;28;20178;-88
2022/05/21 00:23:50;;;;;;;4.47;3.60;;;19.50;99.90;;;;;;5015098;28;20270;-88
2022/05/21 00:26:25;;;;;;;3.80;3.17;;;19.50;99.90;;;;;;5014841;28;20205;-88
2022/05/21 00:28:51;;;;;;;3.65;3.20;;;19.40;99.90;;;;;;5015371;28;20174;-88
2022/05/21 00:31:18;;;;;;;4.28;3.35;;;19.40;99.90;;;;;;5031670;28;20587;-88
2022/05/21 00:33:46;;;;;;;3.97;3.50;;;19.30;99.90;;;;;;5015060;28;20266;-88
2022/05/21 00:36:13;;;;;;;3.40;3.08;;;19.30;99.90;;;;;;5015013;28;20648;-88
2022/05/21 00:38:40;;;;;;;3.65;3.35;;;19.30;99.90;;;;;;5014998;28;20179;-88
2022/05/21 00:41:07;;;;;;;3.40;3.05;;;19.20;99.90;;;;;;5031379;28;20182;-88
2022/05/21 00:43:38;;;;;;;4.57;3.05;;;19.20;99.90;;;;;;5014898;28;20179;-87
2022/05/21 00:46:07;;;;;;;3.35;3.00;;;19.20;99.90;;;;;;5014839;28;20201;-88
2022/05/21 00:48:35;;;;;;;4.07;3.13;;;19.00;99.90;;;;;;5013988;28;20178;-88
2022/05/21 00:51:46;;;;;;;3.35;3.00;;;19.00;99.90;;;;;;5014652;28;20193;-88
2022/05/21 00:54:14;;;;;;;3.97;2.55;;;19.00;99.90;;;;;;5015114;28;20191;-88
2022/05/21 00:56:48;;;;;;;2.85;2.65;;;19.00;99.90;;;;;;5015077;28;20202;-88
2022/05/21 01:02:05;;;;;;;4.03;2.90;;;19.10;99.90;;;;;;5015258;28;20163;-88
2022/05/21 01:04:33;;;;;;;4.03;2.60;;;19.10;99.90;;;;;;5014752;28;20186;-88
2022/05/21 01:07:01;;;;;;;3.38;2.70;;;19.10;99.90;;;;;;5014701;28;20213;-88
2022/05/21 01:09:27;;;;;;;2.90;2.60;;;19.10;99.90;;;;;;5014953;28;20187;-88
2022/05/21 01:11:55;;;;;;;3.05;2.60;;;19.10;99.90;;;;;;5034879;28;20171;-88
2022/05/21 01:14:22;;;;;;;4.80;2.67;;;19.00;99.90;;;;;;5017982;28;20217;-88
2022/05/21 01:16:50;;;;;;;4.53;2.83;;;19.00;99.90;;;;;;5018403;28;20205;-88
2022/05/21 01:19:16;;;;;;;2.75;2.40;;;19.00;99.90;;;;;;5018072;28;20601;-88
2022/05/21 01:21:43;;;;;;;5.85;2.65;;;18.90;99.90;;;;;;5017994;28;20179;-88
2022/05/21 01:24:11;;;;;;;3.50;2.65;;;18.90;99.90;;;;;;5017863;28;20194;-88
2022/05/21 01:26:38;;;;;;;3.75;2.67;;;18.80;99.90;;;;;;5017807;28;20202;-88
2022/05/21 01:29:17;;;;;;;4.15;2.55;;;18.70;99.90;;;;;;5018329;28;20189;-88
2022/05/21 01:31:51;;;;;;;2.95;2.20;;;18.70;99.90;;;;;;5017752;28;20182;-88
2022/05/21 01:34:18;;;;;;;3.05;2.60;;;18.60;99.90;;;;;;5001509;28;20205;-88
2022/05/21 01:36:46;;;;;;;4.03;2.60;;;18.50;99.90;;;;;;5018135;28;20198;-88
2022/05/21 01:39:13;;;;;;;3.13;2.30;;;18.50;99.90;;;;;;5034405;28;20182;-88
2022/05/21 01:41:51;;;;;;;3.13;2.53;;;18.40;99.90;;;;;;5017365;28;20206;-88
2022/05/21 01:47:01;;;;;;;2.55;2.20;;;18.10;99.90;;;;;;5017647;28;20301;-87
2022/05/21 01:49:27;;;;;;;2.83;2.20;;;18.00;99.90;;;;;;5017446;28;20273;-88
2022/05/21 01:51:52;;;;;;;2.17;1.98;;;17.90;99.90;;;;;;5017448;28;20183;-88
2022/05/21 01:54:18;;;;;;;3.38;2.00;;;17.90;99.90;;;;;;5017264;28;20229;-88
2022/05/21 01:56:44;;;;;;;4.38;2.40;;;17.80;99.90;;;;;;5017171;28;20229;-88
2022/05/21 01:59:10;;;;;;;2.22;2.10;;;17.80;99.90;;;;;;5017565;28;20177;-88
2022/05/21 02:01:36;;;;;;;3.63;2.10;;;17.80;99.90;;;;;;5016596;28;20178;-88
2022/05/21 02:04:02;;;;;;;2.45;2.22;;;17.80;99.90;;;;;;5016923;28;20209;-88
2022/05/21 02:06:28;;;;;;;3.50;2.30;;;17.70;99.90;;;;;;5016659;28;20297;-88
2022/05/21 02:08:54;;;;;;;2.40;2.20;;;17.80;99.90;;;;;;5015058;28;20674;-88
2022/05/21 02:11:19;;;;;;;3.05;2.20;;;17.80;99.90;;;;;;5016311;28;20179;-88
2022/05/21 02:13:46;;;;;;;2.40;2.20;;;17.80;99.90;;;;;;5016920;28;20175;-88
2022/05/21 02:16:12;;;;;;;4.53;2.08;;;17.80;99.90;;;;;;5016709;28;20199;-88
2022/05/21 02:18:37;;;;;;;2.35;2.15;;;17.70;99.90;;;;;;5015789;28;20190;-88
2022/05/21 02:21:03;;;;;;;2.20;1.70;;;17.70;99.90;;;;;;5016618;28;20178;-88
2022/05/21 02:23:35;;;;;;;2.65;2.05;;;17.60;99.90;;;;;;5017159;28;20184;-88
2022/05/21 02:26:02;;;;;;;2.72;2.20;;;17.60;99.90;;;;;;5016844;28;20214;-88
2022/05/21 02:28:28;;;;;;;3.37;2.17;;;17.50;99.90;;;;;;5017149;28;20185;-87
2022/05/21 02:30:55;;;;;;;3.10;2.40;;;17.50;99.90;;;;;;5016757;28;20186;-88
2022/05/21 02:33:57;;;;;;;3.47;2.20;;;17.40;99.90;;;;;;5016484;28;20204;-88
2022/05/21 02:39:25;;;;;;;2.40;2.20;;;17.30;99.90;;;;;;5033209;28;20217;-88
2022/05/21 02:39:29;;;;;;;3.00;2.58;;;17.20;99.90;;;;;;5016455;28;20170;-88
2022/05/21 02:41:59;;;;;;;4.23;2.10;;;17.20;99.90;;;;;;5017046;28;20162;-88
2022/05/21 02:44:26;;;;;;;2.43;2.03;;;17.20;99.90;;;;;;5016478;28;20197;-87
2022/05/21 02:46:53;;;;;;;2.27;2.10;;;17.20;99.90;;;;;;5015716;28;20297;-88
2022/05/21 02:49:20;;;;;;;3.92;1.90;;;17.20;99.90;;;;;;5016435;28;20174;-88
2022/05/21 02:51:47;;;;;;;3.33;2.47;;;17.20;99.90;;;;;;5032942;28;20178;-88
2022/05/21 02:54:14;;;;;;;3.53;2.20;;;17.10;99.90;;;;;;5015320;28;20238;-88
2022/05/21 02:56:48;;;;;;;2.53;1.90;;;16.90;99.90;;;;;;5014618;28;20201;-87
2022/05/21 02:59:17;;;;;;;2.43;1.70;;;16.80;99.90;;;;;;5015673;28;20181;-88
2022/05/21 03:01:43;;;;;;;3.10;1.90;;;16.80;99.90;;;;;;5016521;28;20262;-88
2022/05/21 03:04:09;;;;;;;3.13;1.93;;;16.80;99.90;;;;;;5016476;28;20186;-87
2022/05/21 03:06:36;;;;;;;2.47;2.10;;;16.80;99.90;;;;;;5016040;28;20202;-87
2022/05/21 03:11:48;;;;;;;2.30;2.10;;;16.70;99.90;;;;;;5015938;28;20214;-87
2022/05/21 03:14:14;;;;;;;3.03;2.20;;;16.60;99.90;;;;;;5015944;28;20257;-87
2022/05/21 03:16:56;;;;;;;4.33;2.37;;;16.60;99.90;;;;;;5015719;28;20289;-88
2022/05/21 03:19:22;;;;;;;2.97;2.00;;;16.50;99.90;;;;;;5015429;28;20186;-88
2022/05/21 03:21:48;;;;;;;3.40;2.13;;;16.50;99.90;;;;;;5015556;28;20206;-88
2022/05/21 03:24:15;;;;;;;2.87;2.07;;;16.50;99.90;;;;;;5015698;28;20179;-88
2022/05/21 03:26:41;;;;;;;1.90;1.80;;;16.50;99.90;;;;;;5016047;28;20198;-87
2022/05/21 03:29:06;;;;;;;2.23;2.03;;;16.60;99.90;;;;;;5016008;28;20244;-88
2022/05/21 03:31:32;;;;;;;2.07;1.90;;;16.60;99.90;;;;;;5015674;28;20179;-87
2022/05/21 03:33:58;;;;;;;3.83;2.30;;;16.60;99.90;;;;;;5015159;28;20175;-87
2022/05/21 03:36:24;;;;;;;4.00;2.17;;;16.60;99.90;;;;;;5015676;28;20199;-87
2022/05/21 03:38:51;;;;;;;2.07;1.87;;;16.50;99.90;;;;;;5015673;28;20175;-88
2022/05/21 03:41:52;;;;;;;2.60;2.20;;;16.50;99.90;;;;;;5015272;28;20171;-87
2022/05/21 03:44:18;;;;;;;3.50;2.10;;;16.40;99.90;;;;;;5016114;28;20229;-87
2022/05/21 03:46:44;;;;;;;2.37;1.77;;;16.40;99.90;;;;;;5015884;28;20206;-87
2022/05/21 03:49:11;;;;;;;2.30;2.10;;;16.40;99.90;;;;;;5031840;28;20721;-88
2022/05/21 03:51:37;;;;;;;2.90;2.33;;;16.20;99.90;;;;;;5015586;28;20181;-87
2022/05/21 03:54:07;;;;;;;2.40;2.20;;;16.10;99.90;;;;;;5031692;28;20179;-88
2022/05/21 03:56:34;;;;;;;4.27;2.20;;;16.10;99.90;;;;;;5015511;28;20206;-87
2022/05/21 03:58:59;;;;;;;2.90;2.13;;;16.00;99.90;;;;;;5031873;28;20178;-88
2022/05/21 04:01:29;;;;;;;5.07;2.20;;;16.00;99.90;;;;;;5031435;28;20587;-88
2022/05/21 04:03:56;;;;;;;2.43;2.17;;;15.90;99.90;;;;;;5013686;28;20195;-88
2022/05/21 04:06:22;;;;;;;2.40;2.20;;;15.90;99.90;;;;;;5014915;28;20277;-87
2022/05/21 04:08:49;;;;;;;5.43;2.77;;;15.90;99.90;;;;;;5014707;28;20179;-88
2022/05/21 04:11:16;;;;;;;3.07;2.20;;;15.70;99.90;;;;;;5015073;28;20174;-87
2022/05/21 04:13:42;;;;;;;2.97;2.53;;;15.70;99.90;;;;;;5015522;28;20189;-87
2022/05/21 04:16:16;;;;;;;2.77;2.57;;;15.60;99.90;;;;;;5015330;28;20218;-87
2022/05/21 04:18:41;;;;;;;2.50;2.30;;;15.60;99.90;;;;;;5014595;28;20228;-88
2022/05/21 04:21:07;;;;;;;4.33;2.30;;;15.60;99.90;;;;;;5014927;28;20206;-87
2022/05/21 04:23:33;;;;;;;3.00;2.27;;;15.60;99.90;;;;;;5015226;28;20179;-87
2022/05/21 04:25:59;;;;;;;3.97;2.30;;;15.60;99.90;;;;;;5015453;28;20229;-87
2022/05/21 04:28:25;;;;;;;2.77;1.93;;;15.60;99.90;;;;;;5015490;28;20189;-87
2022/05/21 04:30:51;;;;;;;2.30;2.10;;;15.70;99.90;;;;;;5015289;28;20186;-87
2022/05/21 04:33:17;;;;;;;2.50;2.17;;;15.80;99.90;;;;;;5044535;28;20205;-88
2022/05/21 04:38:34;;;;;;;4.87;2.07;;;15.80;99.90;;;;;;5035022;28;20178;-87
2022/05/21 04:41:00;;;;;;;3.07;2.27;;;15.80;99.90;;;;;;5018257;28;20261;-87
2022/05/21 04:43:58;;;;;;;2.97;2.43;;;15.90;99.90;;;;;;5019222;28;20182;-87
2022/05/21 04:46:25;;;;;;;2.37;2.17;;;15.90;99.90;;;;;;5022137;28;20182;-88
2022/05/21 04:48:51;;;;;;;3.03;2.23;;;16.00;99.90;;;;;;5031198;28;20250;-88
2022/05/21 04:51:18;;;;;;;3.03;2.43;;;16.00;99.90;;;;;;5020468;28;20178;-87
2022/05/21 04:53:44;;;;;;;2.40;2.10;;;16.10;99.90;;;;;;5038173;28;20185;-87
2022/05/21 04:56:11;;;;;;;2.33;2.13;;;16.10;99.90;;;;;;5037917;28;20232;-87
2022/05/21 04:58:37;;;;;;;4.27;2.10;;;16.00;99.90;;;;;;5038337;28;20178;-87
2022/05/21 05:01:04;;;;;;;2.53;2.33;;;16.10;99.90;;;;;;5037906;28;20186;-87
2022/05/21 05:03:30;;;;;;;5.10;2.30;;;16.10;99.90;;;;;;5038288;28;20178;-87
2022/05/21 05:06:16;;;;;;;4.67;2.30;;;16.10;99.90;;;;;;5029608;28;20233;-87
2022/05/21 05:08:42;;;;;;;3.10;1.90;;;16.10;99.90;;;;;;5038212;28;20180;-87
2022/05/21 05:11:09;;;;;;;2.80;2.30;;;16.20;99.90;;;;;;5037984;28;20182;-86
2022/05/21 05:14:00;;;;;;;2.97;2.10;;;16.30;99.90;;;;;;5038279;28;20227;-86
2022/05/21 05:16:26;;;;;;;2.37;2.17;;;16.30;99.90;;;;;;5021693;28;20209;-86
2022/05/21 05:18:52;;;;;;;1.93;1.83;;;16.40;99.90;;;;;;5037745;28;20215;-86
2022/05/21 05:21:18;;;;;;;2.60;2.13;;;16.50;99.90;;;;;;5038442;28;20234;-86
2022/05/21 05:23:43;;;;;;;2.40;2.20;;;16.60;99.90;;;;;;5038353;28;20216;-86
2022/05/21 05:26:09;;;;;;;4.43;2.70;;;16.80;99.90;;;;;;5037956;28;20198;-87
2022/05/21 05:28:35;;;;;;;2.53;2.30;;;16.80;99.90;;;;;;5038229;28;20631;-86
2022/05/21 05:31:01;;;;;;;3.03;2.13;;;16.80;99.90;;;;;;5030876;28;20177;-86
2022/05/21 05:33:29;;;;;;;2.93;2.63;;;16.90;99.90;;;;;;5006894;28;20174;-86
2022/05/21 05:35:55;;;;;;;2.70;2.50;;;16.90;99.90;;;;;;5017747;28;20218;-86
2022/05/21 05:38:23;;;;;;;2.67;2.37;;;16.80;99.90;;;;;;5014982;28;20206;-86
2022/05/21 05:40:50;;;;;;;3.93;2.50;;;16.80;99.90;;;;;;5038026;28;20181;-86
2022/05/21 05:43:18;;;;;;;3.60;2.30;;;16.90;99.90;;;;;;5036667;28;20178;-86
2022/05/21 05:45:44;;;;;;;2.83;2.50;;;16.90;99.90;;;;;;5037321;28;20212;-85
2022/05/21 05:48:11;;;;;;;2.87;2.43;;;17.20;99.90;;;;;;5037591;28;20185;-85
2022/05/21 05:50:37;;;;;;;2.67;2.13;;;17.50;99.90;;;;;;5037021;28;20178;-85
2022/05/21 05:53:05;;;;;;;4.03;2.20;;;17.60;99.90;;;;;;5021101;28;20182;-85
2022/05/21 05:55:33;;;;;;;2.63;2.20;;;17.70;99.90;;;;;;5036290;28;20308;-85
2022/05/21 05:57:59;;;;;;;3.83;2.20;;;17.90;99.90;;;;;;5026992;28;20183;-85
2022/05/21 06:00:30;;;;;;;4.00;2.35;;;17.90;99.90;;;;;;5000541;28;20182;-85
2022/05/21 06:02:58;;;;;;;2.70;2.08;;;17.90;99.90;;;;;;5001954;28;20182;-85
2022/05/21 06:05:32;;;;;;;3.53;2.38;;;17.90;99.90;;;;;;5043270;28;20278;-84
2022/05/21 06:08:13;;;;;;;1.83;1.70;;;18.00;99.90;;;;;;5017305;28;20175;-86
2022/05/21 06:10:41;;;;;;;3.42;2.35;;;18.10;99.90;;;;;;5033710;28;20184;-86
2022/05/21 06:13:07;;;;;;;3.22;1.90;;;18.20;99.90;;;;;;5053441;28;20177;-86
2022/05/21 06:15:34;;;;;;;3.05;2.38;;;18.20;99.90;;;;;;5052752;28;20225;-85
2022/05/21 06:18:10;;;;;;;2.55;2.15;;;18.30;99.90;;;;;;5052941;28;20213;-86
2022/05/21 06:20:37;;;;;;;3.05;1.88;;;18.50;99.90;;;;;;5039170;28;20185;-87
2022/05/21 06:23:03;;;;;;;3.63;2.20;;;18.60;99.90;;;;;;5018846;28;20220;-89
2022/05/21 06:25:49;;;;;;;2.15;2.00;;;18.60;99.90;;;;;;5021257;28;20185;-90
2022/05/21 06:28:15;;;;;;;3.63;2.00;;;18.80;99.90;;;;;;5021195;28;20185;-87
2022/05/21 06:30:41;;;;;;;2.22;2.03;;;18.80;99.90;;;;;;5019991;28;20181;-91
2022/05/21 06:33:34;;;;;;;2.13;1.83;;;18.80;99.90;;;;;;5037601;28;20238;-88
2022/05/21 06:36:08;;;;;;;2.63;1.73;;;18.90;99.90;;;;;;5032228;28;20217;-88
2022/05/21 06:38:34;;;;;;;1.80;1.60;;;18.90;99.90;;;;;;5037182;28;20169;-87
2022/05/21 06:41:01;;;;;;;2.50;1.70;;;19.00;99.90;;;;;;5036829;28;20187;-87
2022/05/21 06:43:27;;;;;;;1.90;1.80;;;19.20;99.90;;;;;;5052739;28;20177;-87
2022/05/21 06:45:53;;;;;;;3.30;2.10;;;19.30;99.90;;;;;;5036099;28;20201;-86
2022/05/21 06:48:19;;;;;;;2.42;1.70;;;19.50;99.90;;;;;;5035813;28;20197;-87
2022/05/21 06:50:46;;;;;;;1.98;1.70;;;19.30;99.90;;;;;;5033257;28;20192;-87
2022/05/21 06:53:12;;;;;;;1.92;1.65;;;19.20;99.90;;;;;;5036838;28;20208;-87
2022/05/21 06:55:39;;;;;;;3.22;1.45;;;19.30;99.90;;;;;;5036393;28;20252;-87
2022/05/21 06:58:06;;;;;;;1.50;1.40;;;19.40;99.90;;;;;;5036150;28;20177;-87
2022/05/21 07:00:32;;;;;;;1.80;1.63;;;19.50;99.90;;;;;;5036140;28;20261;-87
2022/05/21 07:02:58;;;;;;;2.05;1.58;;;19.60;99.90;;;;;;5035942;28;20192;-87
2022/05/21 07:08:24;;;;;;;1.70;1.58;;;19.80;99.90;;;;;;5051612;28;20166;-87
2022/05/21 07:10:52;;;;;;;1.73;1.50;;;19.70;99.90;;;;;;5036431;28;20181;-87
2022/05/21 07:13:19;;;;;;;1.65;1.45;;;19.70;99.90;;;;;;5036035;28;20261;-87
2022/05/21 07:15:47;;;;;;;1.00;1.00;;;19.70;99.90;;;;;;5021018;28;20253;-87
2022/05/21 07:18:17;;;;;;;2.22;1.23;;;19.80;99.90;;;;;;5019457;28;20221;-87
2022/05/21 07:20:43;;;;;;;3.15;1.30;;;19.90;99.90;;;;;;5019048;28;20264;-86
2022/05/21 07:23:09;;;;;;;1.20;1.10;;;19.90;99.90;;;;;;5019492;28;20221;-87
2022/05/21 07:25:40;;;;;;;2.72;1.08;;;19.90;99.90;;;;;;5018762;28;20213;-87
2022/05/21 07:28:07;;;;;;;1.52;1.17;;;20.00;99.90;;;;;;5018982;28;20184;-87
2022/05/21 07:30:34;;;;;;;1.10;1.10;;;19.90;99.90;;;;;;5021311;28;20198;-87
2022/05/21 07:33:00;;;;;;;2.05;0.93;;;20.00;99.90;;;;;;4999328;28;20178;-87
2022/05/21 07:35:27;;;;;;;1.63;0.95;;;20.20;99.90;;;;;;4998848;28;20229;-86
2022/05/21 07:37:53;;;;;;;1.25;1.10;;;20.20;99.90;;;;;;4999512;28;20178;-87
2022/05/21 07:40:24;;;;;;;1.48;0.82;;;20.20;99.90;;;;;;5016276;28;20175;-87
2022/05/21 07:42:50;;;;;;;1.48;0.80;;;20.10;99.90;;;;;;5026755;28;20173;-87
2022/05/21 07:45:22;;;;;;;1.75;1.05;;;20.20;99.90;;;;;;5031528;28;20209;-87
2022/05/21 07:47:57;;;;;;;2.47;0.80;;;20.30;99.90;;;;;;5015197;28;20182;-87
2022/05/21 07:50:24;;;;;;;2.03;0.95;;;20.40;99.90;;;;;;4999427;28;20166;-87
2022/05/21 07:52:50;;;;;;;1.90;0.73;;;20.60;99.90;;;;;;5015357;28;20190;-87
2022/05/21 07:55:16;;;;;;;0.82;0.70;;;20.80;99.90;;;;;;4998881;28;20205;-87
2022/05/21 07:57:42;;;;;;;1.10;0.60;;;20.80;99.90;;;;;;4998748;28;20233;-87
2022/05/21 08:00:10;;;;;;;0.70;0.70;;;20.80;99.90;;;;;;4998838;28;20252;-87
2022/05/21 08:02:42;;;;;;;0.65;0.63;;;20.80;99.90;;;;;;5015920;28;20167;-86
2022/05/21 08:05:08;;;;;;;0.55;0.55;;;20.90;99.90;;;;;;4998712;28;20205;-87
2022/05/21 08:07:34;;;;;;;0.70;0.70;;;21.10;99.90;;;;;;5004417;28;20210;-86
2022/05/21 08:09:59;;;;;;;1.35;0.70;;;21.30;99.90;;;;;;5021327;28;20178;-87
2022/05/21 08:12:27;;;;;;;0.80;0.80;;;21.20;99.90;;;;;;5034934;28;20274;-86
2022/05/21 08:14:57;;;;;;;0.90;0.70;;;21.10;99.90;;;;;;5003129;28;20204;-87
2022/05/21 08:17:29;;;;;;;0.95;0.90;;;21.10;99.90;;;;;;5053777;28;20194;-86
2022/05/21 08:19:58;;;;;;;0.73;0.70;;;21.20;99.90;;;;;;5016572;28;20186;-87
2022/05/21 08:27:57;;;;;;;0.70;0.70;;;21.60;99.90;;;;;;5040019;28;20173;-87
2022/05/21 08:30:24;;;;;;;0.70;0.70;;;21.80;99.90;;;;;;5031691;28;20190;-87
2022/05/21 08:32:49;;;;;;;0.80;0.70;;;21.90;99.90;;;;;;5022251;28;20194;-87
2022/05/21 08:35:15;;;;;;;0.60;0.50;;;22.10;99.70;;;;;;5038422;28;20209;-87
2022/05/21 08:37:41;;;;;;;1.60;0.80;;;22.20;99.80;;;;;;5037994;28;20210;-87
2022/05/21 08:40:08;;;;;;;1.40;0.70;;;22.40;99.60;;;;;;5038124;28;20178;-87
2022/05/21 08:42:42;;;;;;;1.80;0.77;;;22.30;99.30;;;;;;5038122;28;20650;-88
2022/05/21 08:45:21;;;;;;;0.98;0.70;;;22.40;99.10;;;;;;5038830;28;20192;-87
2022/05/21 08:48:00;;;;;;;0.88;0.50;;;22.50;98.50;;;;;;5038650;28;20178;-88
2022/05/21 08:50:32;;;;;;;0.60;0.60;;;22.70;99.00;;;;;;5037561;28;20193;-87
2022/05/21 08:53:22;;;;;;;1.05;0.70;;;22.70;98.40;;;;;;5032764;28;20687;-87
2022/05/21 08:55:52;;;;;;;0.60;0.60;;;22.90;97.70;;;;;;5026629;28;20213;-86
2022/05/21 09:01:39;;;;;;;0.80;0.70;;;23.00;98.10;;;;;;5017892;28;20273;-88
2022/05/21 09:04:14;;;;;;;15.52;2.33;;;23.00;96.10;;;;;;5016551;28;20186;-87
2022/05/21 09:07:07;;;;;;;6.88;1.35;;;23.20;97.70;;;;;;5001424;28;20253;-87
2022/05/21 09:09:55;;;;;;;2.60;1.40;;;23.40;97.50;;;;;;5017486;28;20232;-87
2022/05/21 09:12:27;;;;;;;0.95;0.80;;;23.50;97.40;;;;;;5004320;28;20170;-87
2022/05/21 09:15:00;;;;;;;1.50;0.80;;;23.60;96.40;;;;;;5004735;28;20247;-87
2022/05/21 09:17:26;;;;;;;1.02;0.80;;;23.60;96.10;;;;;;5037280;28;20224;-87
2022/05/21 09:20:03;;;;;;;2.75;0.80;;;23.50;96.80;;;;;;5045523;28;20237;-87
2022/05/21 09:22:30;;;;;;;1.00;0.90;;;23.70;96.60;;;;;;5037500;28;20169;-86
2022/05/21 09:25:00;;;;;;;0.73;0.70;;;23.90;95.50;;;;;;5036857;28;20221;-86
2022/05/21 09:27:35;;;;;;;1.08;0.77;;;24.00;96.20;;;;;;5037825;28;20202;-88
2022/05/21 09:30:20;;;;;;;1.75;0.63;;;24.00;95.50;;;;;;5034962;28;20219;-88
2022/05/21 09:32:52;;;;;;;1.15;0.70;;;24.10;95.50;;;;;;5024006;28;20179;-88
2022/05/21 09:35:31;;;;;;;0.60;0.60;;;23.90;95.30;;;;;;5034260;28;20202;-88
2022/05/21 09:38:44;;;;;;;1.65;0.70;;;23.60;95.50;;;;;;5017179;28;20170;-87
2022/05/21 09:41:32;;;;;;;0.88;0.80;;;23.70;95.60;;;;;;4981448;28;20187;-88
2022/05/21 09:47:25;;;;;;;3.92;1.23;;;23.40;94.50;;;;;;5029845;28;20189;-88
2022/05/21 09:50:07;;;;;;;0.90;0.60;;;23.40;96.00;;;;;;5036524;28;20580;-88
2022/05/21 09:52:35;;;;;;;0.80;0.80;;;23.30;95.40;;;;;;5020309;28;20548;-88
2022/05/21 09:55:22;;;;;;;1.38;0.90;;;23.20;95.30;;;;;;5031079;28;20245;-88
2022/05/21 09:57:47;;;;;;;2.33;1.00;;;23.10;95.40;;;;;;5016946;28;20170;-88
2022/05/21 10:00:30;;;;;;;1.58;0.80;;;23.50;94.60;;;;;;5000478;28;20193;-88
2022/05/21 10:02:59;;;;;;;0.70;0.70;;;23.40;94.90;;;;;;5016690;28;20171;-88
2022/05/21 10:05:35;;;;;;;4.68;1.17;;;23.70;95.00;;;;;;5017404;28;20197;-88
2022/05/21 10:11:07;;;;;;;0.60;0.60;;;24.10;95.20;;;;;;5017041;28;20270;-88
2022/05/21 10:13:43;;;;;;;0.75;0.63;;;24.00;93.70;;;;;;5000350;28;20205;-88
2022/05/21 10:16:11;;;;;;;1.75;0.70;;;24.30;92.90;;;;;;4999491;28;20245;-88
2022/05/21 10:18:43;;;;;;;1.00;0.60;;;24.40;93.30;;;;;;4999190;28;20252;-88
2022/05/21 10:21:15;;;;;;;0.50;0.50;;;24.50;93.30;;;;;;4999495;28;20178;-88
2022/05/21 10:23:49;;;;;;;0.88;0.70;;;24.50;92.40;;;;;;4998946;28;20257;-88
2022/05/21 10:26:40;;;;;;;1.40;0.60;;;24.50;92.60;;;;;;4999932;28;20198;-88
2022/05/21 10:29:34;;;;;;;0.65;0.65;;;24.60;92.40;;;;;;5000004;28;20166;-88
2022/05/21 10:32:24;;;;;;;2.35;0.80;;;24.80;93.40;;;;;;5016687;28;20723;-89
2022/05/21 10:35:19;;;;;;;1.60;0.70;;;25.00;92.90;;;;;;5000770;28;20232;-88
2022/05/21 10:38:12;;;;;;;2.35;0.80;;;25.40;91.10;;;;;;4978182;28;20226;-88
2022/05/21 10:40:57;;;;;;;1.08;0.65;;;25.10;91.80;;;;;;5016100;28;20155;-88
2022/05/21 10:43:58;;;;;;;0.63;0.60;;;25.00;90.80;;;;;;5016090;28;20162;-88
2022/05/21 10:46:35;;;;;;;0.88;0.70;;;25.10;89.70;;;;;;5016189;28;20202;-88
2022/05/21 10:49:40;;;;;;;0.80;0.60;;;24.80;89.60;;;;;;4984106;28;20205;-88
2022/05/21 10:52:15;;;;;;;2.28;0.68;;;24.50;91.00;;;;;;4999634;28;20193;-88
2022/05/21 10:54:53;;;;;;;0.70;0.68;;;24.70;89.90;;;;;;5015779;28;20327;-88
2022/05/21 10:57:48;;;;;;;1.00;0.50;;;25.10;90.50;;;;;;5015726;28;20228;-88
2022/05/21 11:00:40;;;;;;;1.27;0.52;;;25.30;89.00;;;;;;5031811;28;20229;-86
2022/05/21 11:03:25;;;;;;;1.27;0.70;;;25.30;88.90;;;;;;5016311;28;20179;-88
2022/05/21 11:06:22;;;;;;;1.38;0.63;;;25.70;90.50;;;;;;5024454;28;20232;-89
2022/05/21 11:09:09;;;;;;;0.52;0.50;;;25.50;86.40;;;;;;5044156;28;20178;-88
2022/05/21 11:11:47;;;;;;;0.50;0.50;;;25.60;88.30;;;;;;5012539;28;20221;-88
2022/05/21 11:14:30;;;;;;;0.68;0.60;;;25.80;87.70;;;;;;5016465;28;20247;-89
2022/05/21 11:17:38;;;;;;;0.65;0.60;;;26.00;87.10;;;;;;5035503;28;20198;-88
2022/05/21 11:20:31;;;;;;;1.40;0.50;;;26.10;85.40;;;;;;5018215;28;20232;-88
2022/05/21 11:23:10;;;;;;;0.50;0.50;;;26.40;83.10;;;;;;5035270;28;20169;-88
2022/05/21 11:25:43;;;;;;;1.17;0.50;;;26.70;84.10;;;;;;5035230;28;20173;-87
2022/05/21 11:28:47;;;;;;;0.47;0.47;;;27.00;83.90;;;;;;5035913;28;20209;-88
2022/05/21 11:37:21;;;;;;;1.17;0.60;;;26.10;83.50;;;;;;5034997;28;20198;-88
2022/05/21 11:39:50;;;;;;;0.43;0.43;;;26.10;83.50;;;;;;5035917;28;20185;-88
2022/05/21 11:42:27;;;;;;;0.60;0.60;;;26.20;81.60;;;;;;5035700;28;20178;-87
2022/05/21 11:44:58;;;;;;;0.40;0.40;;;26.40;80.70;;;;;;5034861;28;20269;-88
2022/05/21 11:47:37;;;;;;;1.10;0.50;;;26.50;79.10;;;;;;5035407;28;20206;-88
2022/05/21 11:50:10;;;;;;;0.50;0.50;;;26.60;80.50;;;;;;5034367;28;20193;-88
2022/05/21 11:53:26;;;;;;;0.40;0.40;;;26.70;82.70;;;;;;5018133;28;20170;-88
2022/05/21 11:56:01;;;;;;;3.35;0.98;;;26.80;81.00;;;;;;5017908;28;20225;-87
2022/05/21 11:58:57;;;;;;;1.20;0.70;;;26.90;80.10;;;;;;5034575;28;20176;-88
2022/05/21 12:01:41;;;;;;;0.82;0.50;;;27.10;81.20;;;;;;5018177;28;20235;-88
2022/05/21 12:04:22;;;;;;;0.63;0.50;;;27.10;79.30;;;;;;5018311;28;20189;-85
2022/05/21 12:06:48;;;;;;;1.25;0.50;;;27.00;78.20;;;;;;5034271;28;20205;-85
2022/05/21 12:09:26;;;;;;;0.70;0.60;;;27.10;76.90;;;;;;5034078;28;20186;-87
2022/05/21 12:12:20;;;;;;;0.57;0.57;;;27.20;78.00;;;;;;5000295;28;20197;-93
2022/05/21 12:14:50;;;;;;;1.95;0.60;;;27.20;74.70;;;;;;4999196;28;20206;-90
2022/05/21 12:17:37;;;;;;;1.02;0.65;;;27.10;76.60;;;;;;4998741;28;20691;-90
2022/05/21 12:20:11;;;;;;;1.55;0.60;;;26.90;76.50;;;;;;5000848;28;20270;-88
2022/05/21 12:23:00;;;;;;;0.75;0.75;;;26.80;77.90;;;;;;5010617;28;20186;-89
2022/05/21 12:25:45;;;;;;;1.63;0.70;;;27.00;78.10;;;;;;5017887;28;20182;-89
2022/05/21 12:28:12;;;;;;;0.80;0.43;;;27.20;77.90;;;;;;5014759;28;20181;-89
2022/05/21 12:30:40;;;;;;;0.52;0.40;;;27.50;74.50;;;;;;5034573;28;20177;-89
2022/05/21 12:33:16;;;;;;;1.77;0.50;;;27.20;73.10;;;;;;5026244;28;20204;-88
2022/05/21 12:36:29;;;;;;;0.80;0.55;;;27.20;74.20;;;;;;5031603;28;20224;-89
2022/05/21 12:38:56;;;;;;;0.55;0.47;;;27.40;72.70;;;;;;4992785;28;20264;-89
2022/05/21 12:41:32;;;;;;;1.90;0.50;;;27.00;74.10;;;;;;5001196;28;20182;-89
2022/05/21 12:44:00;;;;;;;0.60;0.60;;;27.00;74.20;;;;;;5015545;28;20264;-89
2022/05/21 12:46:30;;;;;;;0.60;0.43;;;26.90;74.60;;;;;;5009157;28;20206;-89
2022/05/21 12:48:58;;;;;;;1.30;0.60;;;27.10;78.00;;;;;;4998188;28;20644;-89
2022/05/21 12:51:36;;;;;;;1.25;0.70;;;27.40;76.00;;;;;;4998176;28;20175;-89
2022/05/21 12:54:05;;;;;;;0.55;0.50;;;27.80;76.70;;;;;;4998112;28;20174;-89
2022/05/21 12:56:34;;;;;;;0.50;0.50;;;27.80;75.80;;;;;;4998717;28;20218;-89
2022/05/21 12:59:11;;;;;;;1.02;0.50;;;27.80;73.20;;;;;;4997596;28;20213;-89
2022/05/21 13:01:46;;;;;;;0.85;0.60;;;27.80;72.70;;;;;;4998178;28;20171;-90
2022/05/21 13:04:33;;;;;;;1.23;0.60;;;28.10;73.40;;;;;;4998410;28;20170;-89
2022/05/21 13:07:05;;;;;;;1.50;0.43;;;28.30;71.60;;;;;;5006798;28;20650;-89
2022/05/21 13:09:34;;;;;;;1.13;0.60;;;28.20;70.90;;;;;;5023263;28;20200;-90
2022/05/21 13:12:02;;;;;;;0.40;0.40;;;28.00;71.00;;;;;;5032455;28;20179;-89
2022/05/21 13:14:34;;;;;;;0.57;0.50;;;28.30;74.70;;;;;;5037627;28;20193;-89
2022/05/21 13:17:01;;;;;;;1.30;0.77;;;28.50;71.50;;;;;;5037503;28;20229;-89
2022/05/21 13:19:55;;;;;;;2.53;1.33;;;28.40;70.50;;;;;;5037862;28;20182;-89
2022/05/21 13:22:45;;;;;;;6.68;2.70;;;28.00;70.30;;;;;;5049780;28;20178;-86
2022/05/21 13:25:15;;;;;;;1.27;0.50;;;27.70;68.80;;;;;;5041352;28;20188;-89
2022/05/21 13:27:44;;;;;;;1.73;0.60;;;27.80;73.00;;;;;;5042076;28;20232;-88
2022/05/21 13:30:14;;;;;;;5.88;2.78;;;27.90;70.10;;;;;;5040203;28;20185;-85
2022/05/21 13:32:40;;;;;;;26.65;15.90;;;28.00;69.90;;;;;;5040305;28;20268;-88
2022/05/21 13:35:22;;;;;;;42.33;26.63;;;28.10;66.90;;;;;;5057102;28;20268;-89
2022/05/21 13:37:50;;;;;;;20.58;9.32;;;28.20;69.90;;;;;;5057118;28;20205;-88
2022/05/21 13:40:21;;;;;;;1.40;1.20;;;28.00;66.30;;;;;;5040419;28;20177;-88
2022/05/21 13:42:49;;;;;;;16.88;8.85;;;28.20;69.10;;;;;;5040190;28;20180;-88
2022/05/21 13:45:20;;;;;;;11.40;9.02;;;28.40;68.50;;;;;;5040949;28;20181;-89
2022/05/21 13:47:52;;;;;;;17.00;11.50;;;28.60;68.40;;;;;;5040962;28;20215;-88